Time;durP1;ratioP1;P1;durP2;ratioP2;P2;SDS_P1;SDS_P2;PMS_P1;PMS_P2;Temp;Humidity;BMP_temperature;BMP_pressure;BME280_temperature;BME280_humidity;BME280_pressure;Samples;Min_cycle;Max_cycle;Signal;HPM_P1;HPM_P2
2023/10/13 00:01:12;;;;;;;;;;;;;;;;;;7370464;19;1710;-59
2023/10/13 00:03:40;;;;;;;;;;;;;;;;;;7369832;19;1842;-60
2023/10/13 00:06:08;;;;;;;;;;;;;;;;;;7371666;19;1768;-60
2023/10/13 00:08:37;;;;;;;;;;;;;;;;;;7371697;19;1595;-60
2023/10/13 00:11:05;;;;;;;;;;;;;;;;;;7370859;19;1659;-60
2023/10/13 00:13:41;;;;;;;;;;;;;;;;;;7369455;19;1742;-60
2023/10/13 00:16:16;;;;;;;;;;;;;;;;;;7368849;19;1846;-61
2023/10/13 00:18:44;;;;;;;;;;;;;;;;;;7371269;19;1891;-60
2023/10/13 00:21:15;;;;;;;;;;;;;;;;;;7370804;19;1796;-61
2023/10/13 00:23:52;;;;;;;;;;;;;;;;;;7369447;19;1822;-60
2023/10/13 00:26:23;;;;;;;;;;;;;;;;;;7369428;19;1847;-60
2023/10/13 00:28:58;;;;;;;;;;;;;;;;;;7369919;19;1799;-61
2023/10/13 00:31:32;;;;;;;;;;;;;;;;;;7370730;19;2029;-61
2023/10/13 00:34:09;;;;;;;;;;;;;;;;;;7368628;19;2034;-61
2023/10/13 00:36:46;;;;;;;;;;;;;;;;;;7371359;19;1729;-61
2023/10/13 00:39:15;;;;;;;;;;;;;;;;;;7366871;19;1708;-61
2023/10/13 00:41:52;;;;;;;;;;;;;;;;;;7371203;19;1852;-60
2023/10/13 00:44:25;;;;;;;;;;;;;;;;;;7368822;19;1886;-60
2023/10/13 00:46:55;;;;;;;;;;;;;;;;;;7370312;19;1966;-60
2023/10/13 00:49:22;;;;;;;;;;;;;;;;;;7370852;19;1576;-63
2023/10/13 00:51:50;;;;;;;;;;;;;;;;;;7368977;19;1712;-61
2023/10/13 00:54:18;;;;;;;;;;;;;;;;;;7368244;19;1698;-61
2023/10/13 00:56:49;;;;;;;;;;;;;;;;;;7368760;19;1644;-61
2023/10/13 00:59:14;;;;;;;;;;;;;;;;;;7364493;19;1965;-60
2023/10/13 01:01:44;;;;;;;;;;;;;;;;;;7368984;19;1856;-61
2023/10/13 01:04:12;;;;;;;;;;;;;;;;;;7366799;19;1733;-62
2023/10/13 01:06:40;;;;;;;;;;;;;;;;;;7370485;19;1370;-60
2023/10/13 01:09:11;;;;;;;;;;;;;;;;;;7369765;19;1749;-61
2023/10/13 01:11:39;;;;;;;;;;;;;;;;;;7370570;19;1581;-61
2023/10/13 01:14:05;;;;;;;;;;;;;;;;;;7368411;19;1696;-62
2023/10/13 01:16:35;;;;;;;;;;;;;;;;;;7368934;19;1578;-61
2023/10/13 01:19:04;;;;;;;;;;;;;;;;;;7368375;19;1791;-61
2023/10/13 01:21:33;;;;;;;;;;;;;;;;;;7369601;19;1657;-61
2023/10/13 01:23:58;;;;;;;;;;;;;;;;;;7366525;19;1561;-60
2023/10/13 01:26:27;;;;;;;;;;;;;;;;;;7367774;19;1826;-60
2023/10/13 01:28:54;;;;;;;;;;;;;;;;;;7367538;19;1728;-61
2023/10/13 01:31:29;;;;;;;;;;;;;;;;;;7369564;19;1615;-61
2023/10/13 01:33:58;;;;;;;;;;;;;;;;;;7365556;19;1575;-61
2023/10/13 01:36:26;;;;;;;;;;;;;;;;;;7366679;19;1740;-61
2023/10/13 01:38:53;;;;;;;;;;;;;;;;;;7368115;19;1713;-62
2023/10/13 01:41:21;;;;;;;;;;;;;;;;;;7369264;19;1851;-61
2023/10/13 01:43:48;;;;;;;;;;;;;;;;;;7366618;19;1841;-61
2023/10/13 01:46:21;;;;;;;;;;;;;;;;;;7367889;19;1875;-61
2023/10/13 01:48:47;;;;;;;;;;;;;;;;;;7368868;19;1846;-61
2023/10/13 01:51:15;;;;;;;;;;;;;;;;;;7366434;19;1812;-62
2023/10/13 01:53:41;;;;;;;;;;;;;;;;;;7365116;19;1849;-61
2023/10/13 01:56:14;;;;;;;;;;;;;;;;;;7366633;19;2087;-62
2023/10/13 01:58:42;;;;;;;;;;;;;;;;;;7365668;19;1660;-61
2023/10/13 02:01:10;;;;;;;;;;;;;;;;;;7368360;19;1885;-62
2023/10/13 02:03:41;;;;;;;;;;;;;;;;;;7363591;19;1844;-60
2023/10/13 02:06:10;;;;;;;;;;;;;;;;;;7367086;19;1762;-62
2023/10/13 02:08:43;;;;;;;;;;;;;;;;;;7367077;19;1666;-60
2023/10/13 02:11:11;;;;;;;;;;;;;;;;;;7368032;19;1528;-61
2023/10/13 02:13:48;;;;;;;;;;;;;;;;;;7362958;19;1909;-61
2023/10/13 02:16:18;;;;;;;;;;;;;;;;;;7365701;19;1983;-60
2023/10/13 02:18:44;;;;;;;;;;;;;;;;;;7367509;19;1699;-61
2023/10/13 02:21:15;;;;;;;;;;;;;;;;;;7366529;19;1839;-63
2023/10/13 02:23:44;;;;;;;;;;;;;;;;;;7361634;19;1857;-62
2023/10/13 02:26:15;;;;;;;;;;;;;;;;;;7365045;19;1701;-61
2023/10/13 02:28:40;;;;;;;;;;;;;;;;;;7366133;19;2123;-62
2023/10/13 02:31:09;;;;;;;;;;;;;;;;;;7367602;19;1657;-62
2023/10/13 02:33:34;;;;;;;;;;;;;;;;;;7364032;19;1774;-61
2023/10/13 02:36:04;;;;;;;;;;;;;;;;;;7364295;19;1988;-62
2023/10/13 02:38:34;;;;;;;;;;;;;;;;;;7365423;19;2038;-62
2023/10/13 02:41:05;;;;;;;;;;;;;;;;;;7365910;19;1939;-61
2023/10/13 02:43:33;;;;;;;;;;;;;;;;;;7364874;19;1850;-62
2023/10/13 02:46:01;;;;;;;;;;;;;;;;;;7366903;19;1414;-62
2023/10/13 02:48:30;;;;;;;;;;;;;;;;;;7373476;19;1749;-60
2023/10/13 02:51:01;;;;;;;;;;;;;;;;;;7371637;19;1957;-61
2023/10/13 02:53:28;;;;;;;;;;;;;;;;;;7371303;19;1815;-61
2023/10/13 02:55:56;;;;;;;;;;;;;;;;;;7371141;19;1854;-61
2023/10/13 02:58:22;;;;;;;;;;;;;;;;;;7374640;19;1702;-62
2023/10/13 03:00:50;;;;;;;;;;;;;;;;;;7371597;19;2045;-62
2023/10/13 03:03:18;;;;;;;;;;;;;;;;;;7371771;19;1846;-62
2023/10/13 03:05:46;;;;;;;;;;;;;;;;;;7370529;19;1890;-61
2023/10/13 03:08:17;;;;;;;;;;;;;;;;;;7373055;19;1476;-62
2023/10/13 03:10:48;;;;;;;;;;;;;;;;;;7372357;19;1862;-58
2023/10/13 03:13:13;;;;;;;;;;;;;;;;;;7368820;19;1491;-61
2023/10/13 03:15:44;;;;;;;;;;;;;;;;;;7369674;19;1750;-61
2023/10/13 03:18:18;;;;;;;;;;;;;;;;;;7370940;19;1656;-60
2023/10/13 03:20:50;;;;;;;;;;;;;;;;;;7371280;19;1656;-63
2023/10/13 03:23:15;;;;;;;;;;;;;;;;;;7369576;19;1853;-61
2023/10/13 03:25:49;;;;;;;;;;;;;;;;;;7369045;19;2019;-62
2023/10/13 03:28:20;;;;;;;;;;;;;;;;;;7372678;19;1650;-62
2023/10/13 03:30:52;;;;;;;;;;;;;;;;;;7371091;19;1841;-62
2023/10/13 03:33:25;;;;;;;;;;;;;;;;;;7369361;19;2111;-62
2023/10/13 03:35:54;;;;;;;;;;;;;;;;;;7369955;19;2017;-61
2023/10/13 03:38:27;;;;;;;;;;;;;;;;;;7372696;19;1986;-62
2023/10/13 03:41:07;;;;;;;;;;;;;;;;;;7371023;19;1642;-59
2023/10/13 03:43:44;;;;;;;;;;;;;;;;;;7370060;19;1849;-62
2023/10/13 03:46:12;;;;;;;;;;;;;;;;;;7369345;19;1805;-62
2023/10/13 03:48:52;;;;;;;;;;;;;;;;;;7372502;19;1575;-61
2023/10/13 03:51:20;;;;;;;;;;;;;;;;;;7372031;19;1709;-62
2023/10/13 03:53:55;;;;;;;;;;;;;;;;;;7369712;19;1593;-62
2023/10/13 03:56:38;;;;;;;;;;;;;;;;;;7370797;19;1755;-63
2023/10/13 03:59:09;;;;;;;;;;;;;;;;;;7369667;19;1649;-63
2023/10/13 04:01:45;;;;;;;;;;;;;;;;;;7371981;19;1792;-63
2023/10/13 04:04:14;;;;;;;;;;;;;;;;;;7370414;19;1867;-63
2023/10/13 04:07:12;;;;;;;;;;;;;;;;;;7372862;19;1861;-63
2023/10/13 04:13:49;;;;;;;;;;;;;;;;;;7372287;19;1461;-63
2023/10/13 04:15:17;;;;;;;;;;;;;;;;;;7368692;19;1816;-63
2023/10/13 04:17:48;;;;;;;;;;;;;;;;;;7370876;19;1523;-63
2023/10/13 04:20:27;;;;;;;;;;;;;;;;;;7371213;19;1758;-62
2023/10/13 04:25:52;;;;;;;;;;;;;;;;;;7371109;19;1127;-62
2023/10/13 04:28:34;;;;;;;;;;;;;;;;;;7370902;19;1839;-63
2023/10/13 04:31:11;;;;;;;;;;;;;;;;;;7372763;19;1305;-62
2023/10/13 04:33:44;;;;;;;;;;;;;;;;;;7370532;19;1645;-63
2023/10/13 04:36:16;;;;;;;;;;;;;;;;;;7370417;19;658;-62
2023/10/13 04:38:56;;;;;;;;;;;;;;;;;;7371082;19;1705;-62
2023/10/13 04:41:25;;;;;;;;;;;;;;;;;;7370544;19;2173;-61
2023/10/13 04:43:56;;;;;;;;;;;;;;;;;;7369632;19;1850;-61
2023/10/13 04:49:10;;;;;;;;;;;;;;;;;;7369378;19;1920;-63
2023/10/13 04:51:49;;;;;;;;;;;;;;;;;;7371204;19;1456;-64
2023/10/13 04:54:33;;;;;;;;;;;;;;;;;;7368366;19;2211;-64
2023/10/13 05:02:55;;;;;;;;;;;;;;;;;;7369530;19;1866;-63
2023/10/13 05:48:24;;;;;;;;;;;;;;;;;;7365596;19;1994;-62
2023/10/13 05:50:57;;;;;;;;;;;;;;;;;;7365339;19;1772;-63
2023/10/13 06:31:05;;;;;;;;;;;;;;;;;;7367125;19;1564;-62
2023/10/13 06:33:34;;;;;;;;;;;;;;;;;;7366910;19;1978;-62
2023/10/13 06:36:03;;;;;;;;;;;;;;;;;;7365520;19;1222;-62
2023/10/13 06:38:36;;;;;;;;;;;;;;;;;;7368519;19;1491;-61
2023/10/13 06:41:05;;;;;;;;;;;;;;;;;;7369289;19;1741;-62
2023/10/13 06:43:39;;;;;;;;;;;;;;;;;;7366596;19;1842;-62
2023/10/13 06:46:07;;;;;;;;;;;;;;;;;;7367902;19;1714;-63
2023/10/13 06:48:35;;;;;;;;;;;;;;;;;;7366292;19;1727;-63
2023/10/13 06:51:17;;;;;;;;;;;;;;;;;;7364606;19;825;-64
2023/10/13 06:53:46;;;;;;;;;;;;;;;;;;7362641;19;1381;-63
2023/10/13 06:56:16;;;;;;;;;;;;;;;;;;7364565;19;869;-65
2023/10/13 06:58:46;;;;;;;;;;;;;;;;;;7364294;19;894;-64
2023/10/13 07:01:18;;;;;;;;;;;;;;;;;;7364505;19;876;-63
2023/10/13 07:03:52;;;;;;;;;;;;;;;;;;7362499;19;1848;-63
2023/10/13 07:06:20;;;;;;;;;;;;;;;;;;7363107;19;735;-63
2023/10/13 07:08:51;;;;;;;;;;;;;;;;;;7363651;19;721;-64
2023/10/13 07:11:22;;;;;;;;;;;;;;;;;;7365142;19;1458;-62
2023/10/13 07:13:52;;;;;;;;;;;;;;;;;;7362997;19;1787;-64
2023/10/13 07:16:20;;;;;;;;;;;;;;;;;;7366571;19;1499;-64
2023/10/13 07:18:54;;;;;;;;;;;;;;;;;;7367793;19;1636;-64
2023/10/13 07:21:30;;;;;;;;;;;;;;;;;;7363628;19;650;-64
2023/10/13 07:24:08;;;;;;;;;;;;;;;;;;7361450;19;1846;-64
2023/10/13 07:26:42;;;;;;;;;;;;;;;;;;7367454;19;1549;-63
2023/10/13 07:29:10;;;;;;;;;;;;;;;;;;7363088;19;785;-63
2023/10/13 07:31:40;;;;;;;;;;;;;;;;;;7363431;19;893;-64
2023/10/13 07:34:12;;;;;;;;;;;;;;;;;;7368545;19;1389;-64
2023/10/13 07:36:43;;;;;;;;;;;;;;;;;;7372329;19;1722;-63
2023/10/13 07:39:23;;;;;;;;;;;;;;;;;;7369374;19;788;-63
2023/10/13 07:42:03;;;;;;;;;;;;;;;;;;7373244;19;1502;-64
2023/10/13 07:44:33;;;;;;;;;;;;;;;;;;7367339;19;1850;-63
2023/10/13 07:47:02;;;;;;;;;;;;;;;;;;7369047;19;800;-63
2023/10/13 07:49:30;;;;;;;;;;;;;;;;;;7370068;19;863;-64
2023/10/13 07:52:01;;;;;;;;;;;;;;;;;;7369343;19;865;-63
2023/10/13 07:54:29;;;;;;;;;;;;;;;;;;7367201;19;1248;-63
2023/10/13 07:56:57;;;;;;;;;;;;;;;;;;7374068;19;1761;-61
2023/10/13 07:59:25;;;;;;;;;;;;;;;;;;7372726;19;1454;-63
2023/10/13 08:04:35;;;;;;;;;;;;;;;;;;7366272;19;1846;-62
2023/10/13 08:07:12;;;;;;;;;;;;;;;;;;7371697;19;1565;-62
2023/10/13 08:09:43;;;;;;;;;;;;;;;;;;7372973;19;1553;-62
2023/10/13 08:12:21;;;;;;;;;;;;;;;;;;7370329;19;775;-62
2023/10/13 08:14:49;;;;;;;;;;;;;;;;;;7366291;19;1774;-62
2023/10/13 08:17:31;;;;;;;;;;;;;;;;;;7371619;19;1273;-64
2023/10/13 08:19:59;;;;;;;;;;;;;;;;;;7371534;19;1472;-63
2023/10/13 08:22:35;;;;;;;;;;;;;;;;;;7372471;19;1545;-63
2023/10/13 08:25:45;;;;;;;;;;;;;;;;;;7369362;19;1846;-63
2023/10/13 08:30:56;;;;;;;;;;;;;;;;;;7370456;19;1701;-63
2023/10/13 08:33:27;;;;;;;;;;;;;;;;;;7370729;19;1388;-62
2023/10/13 08:36:17;;;;;;;;;;;;;;;;;;7367717;19;1614;-62
2023/10/13 08:38:55;;;;;;;;;;;;;;;;;;7371060;19;1691;-62
2023/10/13 08:41:31;;;;;;;;;;;;;;;;;;7371657;19;1645;-61
2023/10/13 08:44:03;;;;;;;;;;;;;;;;;;7362993;19;1849;-62
2023/10/13 08:46:40;;;;;;;;;;;;;;;;;;7367002;19;790;-62
2023/10/13 08:49:13;;;;;;;;;;;;;;;;;;7369796;19;1750;-60
2023/10/13 08:51:49;;;;;;;;;;;;;;;;;;7370539;19;1891;-62
2023/10/13 08:54:33;;;;;;;;;;;;;;;;;;7369417;19;1458;-61
2023/10/13 08:57:14;;;;;;;;;;;;;;;;;;7367694;19;791;-60
2023/10/13 08:59:52;;;;;;;;;;;;;;;;;;7369695;19;2022;-61
2023/10/13 09:02:21;;;;;;;;;;;;;;;;;;7371595;19;1485;-60
2023/10/13 09:04:47;;;;;;;;;;;;;;;;;;7366653;19;1864;-64
2023/10/13 09:07:21;;;;;;;;;;;;;;;;;;7371933;19;1467;-59
2023/10/13 09:10:10;;;;;;;;;;;;;;;;;;7370846;19;1466;-60
2023/10/13 09:12:39;;;;;;;;;;;;;;;;;;7367013;19;1336;-58
2023/10/13 09:15:05;;;;;;;;;;;;;;;;;;7367727;19;1579;-61
2023/10/13 09:17:38;;;;;;;;;;;;;;;;;;7369474;19;1469;-60
2023/10/13 09:22:54;;;;;;;;;;;;;;;;;;7366525;19;2220;-64
2023/10/13 09:30:40;;;;;;;;;;;;;;;;;;7333251;19;13485;-53
2023/10/13 09:33:08;;;;;;;;;;;;;;;;;;7354440;19;14405;-55
2023/10/13 09:35:37;;;;;;;;;;;;;;;;;;7310018;19;14986;-60
2023/10/13 09:38:02;;;;;;;;;;;;;;;;;;7400976;19;1020;-59
2023/10/13 09:40:34;;;;;;;;;;;;;;;;;;7377339;19;12387;-47
2023/10/13 09:43:04;;;;;;;;;;;;;;;;;;7404478;19;2059;-46
2023/10/13 09:45:36;;;;;;;;;;;;;;;;;;7400933;19;1800;-45
2023/10/13 09:48:06;;;;;;;;;;;;;;;;;;7402760;19;1496;-45
2023/10/13 09:50:33;;;;;;;;;;;;;;;;;;7397638;19;776;-45
2023/10/13 09:53:01;;;;;;;;;;;;;;;;;;7399923;19;1344;-45
2023/10/13 09:55:27;;;;;;;;;;;;;;;;;;7399258;19;808;-45
2023/10/13 09:57:57;;;;;;;;;;;;;;;;;;7400332;19;807;-44
2023/10/13 10:03:29;;;;;;;;;;;;;;;;;;7398872;19;1721;-45
2023/10/13 10:06:03;;;;;;;;;;;;;;;;;;7399457;19;763;-44
2023/10/13 10:08:33;;;;;;;;;;;;;;;;;;7399730;19;725;-45
2023/10/13 10:10:59;;;;;;;;;;;;;;;;;;7398300;19;1708;-44
2023/10/13 10:13:30;;;;;;;;;;;;;;;;;;7402856;19;1795;-64
2023/10/13 10:15:58;;;;;;;;;;;;;;;;;;7401715;19;1685;-60
2023/10/13 10:18:27;;;;;;;;;;;;;;;;;;7402025;19;1849;-57
2023/10/13 10:20:56;;;;;;;;;;;;;;;;;;7404941;19;1480;-44
2023/10/13 10:23:24;;;;;;;;;;;;;;;;;;7401138;19;1818;-44
2023/10/13 10:25:53;;;;;;;;;;;;;;;;;;7403226;19;1633;-44
2023/10/13 10:28:21;;;;;;;;;;;;;;;;;;7399842;19;879;-44
2023/10/13 10:30:49;;;;;;;;;;;;;;;;;;7398994;19;803;-44
2023/10/13 10:33:18;;;;;;;;;;;;;;;;;;7398360;19;1340;-44
2023/10/13 10:35:46;;;;;;;;;;;;;;;;;;7398491;19;933;-44
2023/10/13 10:38:16;;;;;;;;;;;;;;;;;;7399318;19;835;-44
2023/10/13 10:40:47;;;;;;;;;;;;;;;;;;7382750;19;1849;-44
2023/10/13 10:43:17;;;;;;;;;;;;;;;;;;7370136;19;1333;-44
2023/10/13 10:45:45;;;;;;;;;;;;;;;;;;7369986;19;658;-44
2023/10/13 10:48:20;;;;;;;;;;;;;;;;;;7370473;19;856;-44
2023/10/13 10:50:48;;;;;;;;;;;;;;;;;;7371663;19;760;-44
2023/10/13 10:53:17;;;;;;;;;;;;;;;;;;7369553;19;1287;-44
2023/10/13 10:55:45;;;;;;;;;;;;;;;;;;7369471;19;772;-44
2023/10/13 10:58:28;;;;;;;;;;;;;;;;;;7371292;19;846;-44
2023/10/13 11:01:01;;;;;;;;;;;;;;;;;;7368086;19;1859;-43
2023/10/13 11:03:29;;;;;;;;;;;;;;;;;;7369603;19;1399;-44
2023/10/13 11:05:59;;;;;;;;;;;;;;;;;;7369543;19;817;-43
2023/10/13 11:08:31;;;;;;;;;;;;;;;;;;7372461;19;804;-44
2023/10/13 11:11:00;;;;;;;;;;;;;;;;;;7369804;19;791;-44
2023/10/13 11:13:31;;;;;;;;;;;;;;;;;;7369340;19;1377;-44
2023/10/13 11:16:01;;;;;;;;;;;;;;;;;;7369568;19;718;-44
2023/10/13 11:18:33;;;;;;;;;;;;;;;;;;7370453;19;911;-44
2023/10/13 11:21:06;;;;;;;;;;;;;;;;;;7366716;19;1984;-43
2023/10/13 11:23:36;;;;;;;;;;;;;;;;;;7367731;19;1837;-44
2023/10/13 11:26:05;;;;;;;;;;;;;;;;;;7371483;19;1325;-44
2023/10/13 11:28:34;;;;;;;;;;;;;;;;;;7369411;19;1909;-55
2023/10/13 11:31:10;;;;;;;;;;;;;;;;;;7373106;19;1687;-56
2023/10/13 11:33:42;;;;;;;;;;;;;;;;;;7369547;19;1671;-50
2023/10/13 11:36:17;;;;;;;;;;;;;;;;;;7371561;19;1675;-58
2023/10/13 11:38:49;;;;;;;;;;;;;;;;;;7373200;19;1857;-57
2023/10/13 11:41:18;;;;;;;;;;;;;;;;;;7372389;19;1771;-56
2023/10/13 11:43:52;;;;;;;;;;;;;;;;;;7369948;19;1623;-52
2023/10/13 11:46:55;;;;;;;;;;;;;;;;;;7368271;19;749;-50
2023/10/13 11:49:08;;;;;;;;;;;;;;;;;;7371333;19;2074;-59
2023/10/13 11:51:38;;;;;;;;;;;;;;;;;;7372289;19;1474;-63
2023/10/13 11:54:06;;;;;;;;;;;;;;;;;;7365332;19;1238;-56
2023/10/13 11:56:34;;;;;;;;;;;;;;;;;;7368352;19;1755;-51
2023/10/13 11:59:05;;;;;;;;;;;;;;;;;;7371164;19;1854;-56
2023/10/13 12:07:03;;;;;;;;;;;;;;;;;;7370384;19;1775;-63
2023/10/13 12:09:41;;;;;;;;;;;;;;;;;;7371963;19;1446;-59
2023/10/13 12:12:10;;;;;;;;;;;;;;;;;;7370381;19;1988;-51
2023/10/13 12:14:52;;;;;;;;;;;;;;;;;;7367489;19;1611;-45
2023/10/13 12:17:24;;;;;;;;;;;;;;;;;;7372602;19;1690;-44
2023/10/13 12:19:52;;;;;;;;;;;;;;;;;;7366948;19;1871;-45
2023/10/13 12:22:28;;;;;;;;;;;;;;;;;;7369285;19;1614;-45
2023/10/13 12:24:56;;;;;;;;;;;;;;;;;;7370112;19;1698;-44
2023/10/13 12:27:35;;;;;;;;;;;;;;;;;;7368152;19;808;-44
2023/10/13 12:30:07;;;;;;;;;;;;;;;;;;7367545;19;1132;-45
2023/10/13 12:32:35;;;;;;;;;;;;;;;;;;7369038;19;1988;-44
2023/10/13 12:38:04;;;;;;;;;;;;;;;;;;7401592;19;1329;-43
2023/10/13 12:51:40;;;;;;;;;;;;;;;;;;7402645;19;1658;-44
2023/10/13 12:54:13;;;;;;;;;;;;;;;;;;7402496;19;1594;-44
2023/10/13 12:56:42;;;;;;;;;;;;;;;;;;7398888;19;1843;-44
2023/10/13 12:59:13;;;;;;;;;;;;;;;;;;7399841;19;861;-44
2023/10/13 13:01:42;;;;;;;;;;;;;;;;;;7405219;19;1692;-44
2023/10/13 13:04:12;;;;;;;;;;;;;;;;;;7402496;19;1674;-47
2023/10/13 13:06:40;;;;;;;;;;;;;;;;;;7403353;19;1700;-53
2023/10/13 13:09:09;;;;;;;;;;;;;;;;;;7401885;19;1767;-48
2023/10/13 13:11:39;;;;;;;;;;;;;;;;;;7404855;19;1466;-47
2023/10/13 13:14:07;;;;;;;;;;;;;;;;;;7400734;19;1727;-48
2023/10/13 13:16:36;;;;;;;;;;;;;;;;;;7402561;19;1852;-48
2023/10/13 13:19:09;;;;;;;;;;;;;;;;;;7400471;19;774;-48
2023/10/13 13:21:38;;;;;;;;;;;;;;;;;;7400136;19;802;-48
2023/10/13 13:24:10;;;;;;;;;;;;;;;;;;7398623;19;1719;-48
2023/10/13 13:26:40;;;;;;;;;;;;;;;;;;7402711;19;1688;-45
2023/10/13 13:29:09;;;;;;;;;;;;;;;;;;7402640;19;1677;-47
2023/10/13 13:31:41;;;;;;;;;;;;;;;;;;7399340;19;849;-45
2023/10/13 13:34:09;;;;;;;;;;;;;;;;;;7398387;19;1839;-47
2023/10/13 13:36:37;;;;;;;;;;;;;;;;;;7402268;19;1856;-48
2023/10/13 13:39:07;;;;;;;;;;;;;;;;;;7400128;19;853;-47
2023/10/13 13:41:35;;;;;;;;;;;;;;;;;;7399661;19;965;-46
2023/10/13 13:44:13;;;;;;;;;;;;;;;;;;7400312;19;2140;-49
2023/10/13 13:46:41;;;;;;;;;;;;;;;;;;7401822;19;1588;-45
2023/10/13 13:49:17;;;;;;;;;;;;;;;;;;7376099;19;1669;-45
2023/10/13 13:51:51;;;;;;;;;;;;;;;;;;7371587;19;784;-47
2023/10/13 13:54:19;;;;;;;;;;;;;;;;;;7368791;19;1337;-45
2023/10/13 13:56:47;;;;;;;;;;;;;;;;;;7367080;19;1859;-44
2023/10/13 13:59:19;;;;;;;;;;;;;;;;;;7371859;19;1698;-56
2023/10/13 14:01:47;;;;;;;;;;;;;;;;;;7373674;19;1709;-53
2023/10/13 14:04:17;;;;;;;;;;;;;;;;;;7368710;19;1339;-47
2023/10/13 14:06:45;;;;;;;;;;;;;;;;;;7369859;19;830;-51
2023/10/13 14:09:32;;;;;;;;;;;;;;;;;;7369927;19;1994;-49
2023/10/13 14:14:47;;;;;;;;;;;;;;;;;;7367298;19;1292;-51
2023/10/13 14:17:15;;;;;;;;;;;;;;;;;;7369213;19;1846;-47
2023/10/13 14:19:45;;;;;;;;;;;;;;;;;;7370188;19;1695;-51
2023/10/13 14:22:15;;;;;;;;;;;;;;;;;;7372399;19;2020;-50
2023/10/13 14:24:47;;;;;;;;;;;;;;;;;;7370371;19;1730;-45
2023/10/13 14:27:18;;;;;;;;;;;;;;;;;;7369031;19;871;-57
2023/10/13 14:29:47;;;;;;;;;;;;;;;;;;7370579;19;2167;-57
2023/10/13 14:32:15;;;;;;;;;;;;;;;;;;7373353;19;1462;-60
2023/10/13 14:34:43;;;;;;;;;;;;;;;;;;7369392;19;1355;-63
2023/10/13 14:37:12;;;;;;;;;;;;;;;;;;7368750;19;1841;-58
2023/10/13 14:39:40;;;;;;;;;;;;;;;;;;7372379;19;1579;-63
2023/10/13 14:42:08;;;;;;;;;;;;;;;;;;7373258;19;1639;-57
2023/10/13 14:44:37;;;;;;;;;;;;;;;;;;7366117;19;1359;-60
2023/10/13 14:47:05;;;;;;;;;;;;;;;;;;7369705;19;1656;-60
2023/10/13 14:49:35;;;;;;;;;;;;;;;;;;7372019;19;1970;-42
2023/10/13 14:52:03;;;;;;;;;;;;;;;;;;7372602;19;1717;-44
2023/10/13 14:54:37;;;;;;;;;;;;;;;;;;7370416;19;1499;-42
2023/10/13 14:57:05;;;;;;;;;;;;;;;;;;7367789;19;1837;-63
2023/10/13 14:59:38;;;;;;;;;;;;;;;;;;7367546;19;796;-60
2023/10/13 15:02:06;;;;;;;;;;;;;;;;;;7370508;19;1793;-60
2023/10/13 15:04:35;;;;;;;;;;;;;;;;;;7369658;19;1735;-62
2023/10/13 15:07:05;;;;;;;;;;;;;;;;;;7368196;19;2111;-63
2023/10/13 15:09:33;;;;;;;;;;;;;;;;;;7372352;19;1661;-58
2023/10/13 15:12:05;;;;;;;;;;;;;;;;;;7368607;19;828;-54
2023/10/13 15:14:34;;;;;;;;;;;;;;;;;;7367975;19;1673;-53
2023/10/13 15:17:05;;;;;;;;;;;;;;;;;;7370647;19;1856;-56
2023/10/13 15:19:35;;;;;;;;;;;;;;;;;;7371321;19;1642;-56
2023/10/13 15:22:06;;;;;;;;;;;;;;;;;;7370174;19;2038;-58
2023/10/13 15:24:41;;;;;;;;;;;;;;;;;;7369175;19;1550;-58
2023/10/13 15:27:09;;;;;;;;;;;;;;;;;;7368679;19;721;-52
2023/10/13 15:29:40;;;;;;;;;;;;;;;;;;7371044;19;1807;-60
2023/10/13 15:34:49;;;;;;;;;;;;;;;;;;7364501;19;2615;-59
2023/10/13 15:37:17;;;;;;;;;;;;;;;;;;7366729;19;1850;-55
2023/10/13 15:39:45;;;;;;;;;;;;;;;;;;7371652;19;1685;-57
2023/10/13 15:42:14;;;;;;;;;;;;;;;;;;7371951;19;1651;-43
2023/10/13 15:44:43;;;;;;;;;;;;;;;;;;7367507;19;2150;-42
2023/10/13 15:47:12;;;;;;;;;;;;;;;;;;7370136;19;1787;-42
2023/10/13 15:49:41;;;;;;;;;;;;;;;;;;7372481;19;1532;-43
2023/10/13 15:52:10;;;;;;;;;;;;;;;;;;7367474;19;879;-43
2023/10/13 15:54:40;;;;;;;;;;;;;;;;;;7364906;19;1397;-42
2023/10/13 15:57:16;;;;;;;;;;;;;;;;;;7367153;19;1854;-43
2023/10/13 15:59:45;;;;;;;;;;;;;;;;;;7368821;19;719;-43
2023/10/13 16:02:16;;;;;;;;;;;;;;;;;;7368010;19;868;-43
2023/10/13 16:04:44;;;;;;;;;;;;;;;;;;7364462;19;1285;-42
2023/10/13 16:07:12;;;;;;;;;;;;;;;;;;7368306;19;764;-42
2023/10/13 16:09:40;;;;;;;;;;;;;;;;;;7367701;19;868;-43
2023/10/13 16:12:10;;;;;;;;;;;;;;;;;;7367162;19;851;-43
2023/10/13 16:14:40;;;;;;;;;;;;;;;;;;7364036;19;1296;-42
2023/10/13 16:17:08;;;;;;;;;;;;;;;;;;7366822;19;1859;-42
2023/10/13 16:19:36;;;;;;;;;;;;;;;;;;7367995;19;845;-42
2023/10/13 16:22:05;;;;;;;;;;;;;;;;;;7368050;19;793;-42
2023/10/13 16:24:33;;;;;;;;;;;;;;;;;;7363321;19;1343;-42
2023/10/13 16:27:01;;;;;;;;;;;;;;;;;;7366830;19;801;-43
2023/10/13 16:29:31;;;;;;;;;;;;;;;;;;7367177;19;833;-42
2023/10/13 16:31:59;;;;;;;;;;;;;;;;;;7368155;19;1860;-58
2023/10/13 16:34:27;;;;;;;;;;;;;;;;;;7362230;19;1923;-48
2023/10/13 16:36:55;;;;;;;;;;;;;;;;;;7370383;19;1919;-55
2023/10/13 16:39:24;;;;;;;;;;;;;;;;;;7367638;19;1651;-57
2023/10/13 16:41:52;;;;;;;;;;;;;;;;;;7371003;19;1480;-56
2023/10/13 16:44:20;;;;;;;;;;;;;;;;;;7364070;19;1336;-47
2023/10/13 16:46:48;;;;;;;;;;;;;;;;;;7365320;19;756;-51
2023/10/13 16:49:17;;;;;;;;;;;;;;;;;;7366764;19;1843;-54
2023/10/13 16:51:45;;;;;;;;;;;;;;;;;;7370267;19;1445;-54
2023/10/13 16:54:14;;;;;;;;;;;;;;;;;;7363539;19;2038;-44
2023/10/13 16:56:42;;;;;;;;;;;;;;;;;;7368492;19;1849;-44
2023/10/13 16:59:11;;;;;;;;;;;;;;;;;;7368609;19;1458;-44
2023/10/13 17:01:39;;;;;;;;;;;;;;;;;;7365549;19;826;-44
2023/10/13 17:04:08;;;;;;;;;;;;;;;;;;7364912;19;1273;-44
2023/10/13 17:06:36;;;;;;;;;;;;;;;;;;7366530;19;1685;-44
2023/10/13 17:09:04;;;;;;;;;;;;;;;;;;7368338;19;1455;-44
2023/10/13 17:11:35;;;;;;;;;;;;;;;;;;7367277;19;2292;-44
2023/10/13 17:14:05;;;;;;;;;;;;;;;;;;7365287;19;1944;-44
2023/10/13 17:16:33;;;;;;;;;;;;;;;;;;7368057;19;1476;-45
2023/10/13 17:19:02;;;;;;;;;;;;;;;;;;7362189;19;1849;-45
2023/10/13 17:21:31;;;;;;;;;;;;;;;;;;7365222;19;886;-44
2023/10/13 17:24:01;;;;;;;;;;;;;;;;;;7366836;19;1721;-44
2023/10/13 17:26:30;;;;;;;;;;;;;;;;;;7375587;19;1775;-44
2023/10/13 17:28:58;;;;;;;;;;;;;;;;;;7370572;19;925;-44
2023/10/13 17:31:27;;;;;;;;;;;;;;;;;;7370252;19;861;-44
2023/10/13 17:33:58;;;;;;;;;;;;;;;;;;7369919;19;1267;-44
2023/10/13 17:36:27;;;;;;;;;;;;;;;;;;7372470;19;1722;-44
2023/10/13 17:38:55;;;;;;;;;;;;;;;;;;7374043;19;1849;-43
2023/10/13 17:41:24;;;;;;;;;;;;;;;;;;7371570;19;793;-43
2023/10/13 17:43:52;;;;;;;;;;;;;;;;;;7369634;19;1744;-44
2023/10/13 17:46:22;;;;;;;;;;;;;;;;;;7375055;19;1588;-45
2023/10/13 17:48:55;;;;;;;;;;;;;;;;;;7373652;19;1486;-45
2023/10/13 17:51:23;;;;;;;;;;;;;;;;;;7373645;19;1636;-47
2023/10/13 17:53:52;;;;;;;;;;;;;;;;;;7373647;19;1461;-45
2023/10/13 17:56:21;;;;;;;;;;;;;;;;;;7371931;19;1698;-44
2023/10/13 17:58:51;;;;;;;;;;;;;;;;;;7373637;19;1869;-44
2023/10/13 18:01:19;;;;;;;;;;;;;;;;;;7370394;19;857;-44
2023/10/13 18:03:47;;;;;;;;;;;;;;;;;;7369959;19;1308;-44
2023/10/13 18:06:16;;;;;;;;;;;;;;;;;;7371377;19;1661;-46
2023/10/13 18:08:44;;;;;;;;;;;;;;;;;;7374513;19;1449;-43
2023/10/13 18:11:12;;;;;;;;;;;;;;;;;;7370983;19;866;-43
2023/10/13 18:13:41;;;;;;;;;;;;;;;;;;7369580;19;1259;-43
2023/10/13 18:16:09;;;;;;;;;;;;;;;;;;7371843;19;1957;-44
2023/10/13 18:18:38;;;;;;;;;;;;;;;;;;7373137;19;1857;-44
2023/10/13 18:21:07;;;;;;;;;;;;;;;;;;7370608;19;1960;-43
2023/10/13 18:23:35;;;;;;;;;;;;;;;;;;7370199;19;2093;-45
2023/10/13 18:26:05;;;;;;;;;;;;;;;;;;7372086;19;1715;-56
2023/10/13 18:28:35;;;;;;;;;;;;;;;;;;7374344;19;1667;-58
2023/10/13 18:31:04;;;;;;;;;;;;;;;;;;7370599;19;1618;-53
2023/10/13 18:33:33;;;;;;;;;;;;;;;;;;7372628;19;1680;-49
2023/10/13 18:36:01;;;;;;;;;;;;;;;;;;7369662;19;1787;-43
2023/10/13 18:38:31;;;;;;;;;;;;;;;;;;7372405;19;1864;-42
2023/10/13 18:40:59;;;;;;;;;;;;;;;;;;7369545;19;881;-42
2023/10/13 18:43:28;;;;;;;;;;;;;;;;;;7368989;19;1265;-56
2023/10/13 18:45:56;;;;;;;;;;;;;;;;;;7369161;19;937;-56
2023/10/13 18:48:24;;;;;;;;;;;;;;;;;;7368931;19;2085;-56
2023/10/13 18:50:54;;;;;;;;;;;;;;;;;;7373184;19;1710;-52
2023/10/13 18:53:23;;;;;;;;;;;;;;;;;;7372136;19;1765;-49
2023/10/13 18:55:51;;;;;;;;;;;;;;;;;;7372328;19;1652;-47
2023/10/13 18:58:20;;;;;;;;;;;;;;;;;;7370907;19;1861;-46
2023/10/13 19:00:48;;;;;;;;;;;;;;;;;;7371953;19;1790;-49
2023/10/13 19:03:16;;;;;;;;;;;;;;;;;;7370796;19;1917;-54
2023/10/13 19:05:44;;;;;;;;;;;;;;;;;;7373112;19;1445;-51
2023/10/13 19:08:12;;;;;;;;;;;;;;;;;;7371060;19;2079;-47
2023/10/13 19:10:40;;;;;;;;;;;;;;;;;;7373878;19;1356;-48
2023/10/13 19:13:13;;;;;;;;;;;;;;;;;;7367867;19;1564;-47
2023/10/13 19:15:41;;;;;;;;;;;;;;;;;;7371835;19;1454;-45
2023/10/13 19:18:09;;;;;;;;;;;;;;;;;;7367780;19;1870;-51
2023/10/13 19:20:39;;;;;;;;;;;;;;;;;;7367987;19;831;-43
2023/10/13 19:23:07;;;;;;;;;;;;;;;;;;7369815;19;1626;-43
2023/10/13 19:25:35;;;;;;;;;;;;;;;;;;7366712;19;2064;-43
2023/10/13 19:28:04;;;;;;;;;;;;;;;;;;7372865;19;1441;-44
2023/10/13 19:30:35;;;;;;;;;;;;;;;;;;7368353;19;1782;-43
2023/10/13 19:33:04;;;;;;;;;;;;;;;;;;7371874;19;1648;-46
2023/10/13 19:35:32;;;;;;;;;;;;;;;;;;7371579;19;1459;-43
2023/10/13 19:38:00;;;;;;;;;;;;;;;;;;7370535;19;1841;-42
2023/10/13 19:40:31;;;;;;;;;;;;;;;;;;7368127;19;896;-43
2023/10/13 19:42:59;;;;;;;;;;;;;;;;;;7366851;19;1383;-46
2023/10/13 19:45:27;;;;;;;;;;;;;;;;;;7366126;19;877;-43